createdAt,value
2018-04-09T00:00:11.102Z,37.75
2018-04-09T00:01:13.581Z,40.70
2018-04-09T00:02:16.096Z,39.33
2018-04-09T00:03:18.582Z,37.45
2018-04-09T00:04:21.068Z,37.45
2018-04-09T00:05:23.566Z,34.88
2018-04-09T00:06:26.051Z,37.35
2018-04-09T00:07:28.541Z,38.45
2018-04-09T00:08:31.010Z,39.97
2018-04-09T00:09:33.491Z,41.03
2018-04-09T00:10:35.985Z,54.58
2018-04-09T00:11:39.240Z,45.92
2018-04-09T00:12:41.708Z,42.70
2018-04-09T00:13:44.822Z,39.65
2018-04-09T00:14:47.314Z,45.20
2018-04-09T00:15:50.571Z,58.47
2018-04-09T00:16:53.699Z,44.90
2018-04-09T00:17:56.165Z,40.58
2018-04-09T00:18:58.621Z,47.90
2018-04-09T00:20:01.088Z,44.25
2018-04-09T00:21:03.578Z,77.40
2018-04-09T00:22:06.812Z,48.47
2018-04-09T00:23:09.292Z,38.95
2018-04-09T00:24:11.789Z,36.88
2018-04-09T00:25:15.023Z,34.50
2018-04-09T00:26:18.298Z,45.58
2018-04-09T00:27:20.799Z,42.10
2018-04-09T00:28:23.265Z,42.97
2018-04-09T00:30:41.064Z,40.40
2018-04-09T00:31:44.288Z,38.22
2018-04-09T00:32:47.533Z,40.63
2018-04-09T00:33:50.775Z,39.92
2018-04-09T00:34:54.061Z,42.97
2018-04-09T00:35:56.540Z,75.55
2018-04-09T00:36:59.766Z,46.83
2018-04-09T00:38:02.227Z,44.35
2018-04-09T00:39:05.607Z,41.08
2018-04-09T00:40:08.155Z,49.72
2018-04-09T00:41:10.642Z,46.53
2018-04-09T00:42:13.118Z,46.53
2018-04-09T00:43:15.580Z,63.55
2018-04-09T00:44:18.073Z,48.53
2018-04-09T00:45:20.536Z,44.80
2018-04-09T00:46:23.017Z,46.72
2018-04-09T00:47:25.556Z,43.50
2018-04-09T00:48:28.814Z,41.45
2018-04-09T00:49:32.089Z,52.47
2018-04-09T00:50:34.603Z,57.28
2018-04-09T00:51:37.083Z,49.35
2018-04-09T00:52:39.602Z,42.35
2018-04-09T00:53:53.830Z,43.35
2018-04-09T00:54:56.357Z,43.70
2018-04-09T00:55:58.826Z,44.17
2018-04-09T00:57:01.319Z,47.10
2018-04-09T00:58:03.797Z,44.55
2018-04-09T00:59:06.279Z,45.47
2018-04-09T01:00:08.744Z,45.47
2018-04-09T01:01:11.929Z,46.20
2018-04-09T01:02:14.472Z,43.83
2018-04-09T01:03:16.966Z,42.47
2018-04-09T01:04:20.194Z,41.13
2018-04-09T01:05:22.665Z,39.72
2018-04-09T01:06:25.136Z,43.15
2018-04-09T01:07:28.343Z,43.90
2018-04-09T01:08:30.794Z,44.72
2018-04-09T01:09:33.284Z,58.08
2018-04-09T01:10:35.796Z,52.28
2018-04-09T01:11:38.261Z,53.72
2018-04-09T01:12:40.748Z,45.45
2018-04-09T01:13:43.221Z,46.40
2018-04-09T01:14:45.679Z,42.28
2018-04-09T01:15:48.144Z,39.50
2018-04-09T01:16:50.683Z,46.88
2018-04-09T01:17:53.145Z,40.38
2018-04-09T01:18:56.380Z,45.17
2018-04-09T01:19:59.633Z,47.67
2018-04-09T01:21:02.903Z,45.15
2018-04-09T01:22:05.373Z,48.40
2018-04-09T01:23:07.934Z,45.20
2018-04-09T01:24:10.466Z,46.97
2018-04-09T01:25:12.963Z,47.45
2018-04-09T01:26:15.681Z,44.67
2018-04-09T01:27:18.150Z,46.28
2018-04-09T01:28:20.634Z,46.13
2018-04-09T01:29:23.131Z,42.65
2018-04-09T01:30:25.594Z,43.55
2018-04-09T01:31:28.058Z,42.97
2018-04-09T01:32:30.515Z,45.72
2018-04-09T01:33:32.992Z,44.42
2018-04-09T01:34:35.499Z,44.42
2018-04-09T01:35:38.754Z,48.03
2018-04-09T01:36:41.318Z,43.33
2018-04-09T01:37:43.870Z,39.58
2018-04-09T01:38:48.070Z,49.17
2018-04-09T01:39:50.609Z,42.05
2018-04-09T01:40:53.082Z,46.05
2018-04-09T01:41:55.553Z,41.80
2018-04-09T01:42:57.998Z,45.72
2018-04-09T01:44:00.480Z,56.30
2018-04-09T01:45:03.855Z,46.13
2018-04-09T01:46:06.318Z,48.92
2018-04-09T01:47:08.803Z,48.97
2018-04-09T01:48:11.320Z,47.30
2018-04-09T01:49:13.796Z,46.58
2018-04-09T01:50:16.298Z,48.55
2018-04-09T01:51:18.785Z,47.15
2018-04-09T01:52:21.345Z,46.20
2018-04-09T01:53:23.790Z,45.30
2018-04-09T01:54:26.317Z,44.25
2018-04-09T01:55:28.794Z,45.10
2018-04-09T01:56:31.291Z,46.97
2018-04-09T01:57:33.747Z,41.42
2018-04-09T01:58:36.224Z,46.33
2018-04-09T02:00:36.379Z,42.75
2018-04-09T02:01:38.843Z,46.95
2018-04-09T02:02:41.308Z,44.95
2018-04-09T02:03:43.888Z,41.35
2018-04-09T02:04:46.361Z,44.15
2018-04-09T02:05:49.226Z,39.33
2018-04-09T02:06:52.452Z,46.03
2018-04-09T02:07:54.921Z,39.75
2018-04-09T02:08:57.541Z,44.03
2018-04-09T02:09:59.998Z,41.55
2018-04-09T02:11:02.472Z,41.65
2018-04-09T02:12:05.713Z,42.05
2018-04-09T02:13:09.641Z,40.83
2018-04-09T02:14:12.939Z,43.40
2018-04-09T02:15:15.406Z,39.97
2018-04-09T02:16:17.895Z,43.92
2018-04-09T02:17:20.411Z,44.35
2018-04-09T02:18:22.910Z,44.20
2018-04-09T02:19:25.403Z,43.28
2018-04-09T02:20:27.859Z,42.55
2018-04-09T02:21:31.132Z,40.70
2018-04-09T02:22:33.601Z,39.22
2018-04-09T02:23:36.106Z,44.72
2018-04-09T02:24:38.595Z,49.85
2018-04-09T02:25:41.836Z,41.65
2018-04-09T02:26:45.077Z,40.53
2018-04-09T02:27:48.318Z,40.60
2018-04-09T02:28:51.576Z,45.88
2018-04-09T02:29:54.064Z,44.65
2018-04-09T02:30:56.532Z,40.67
2018-04-09T02:31:59.003Z,43.53
2018-04-09T02:33:01.485Z,40.20
2018-04-09T02:34:03.952Z,39.47
2018-04-09T02:35:06.438Z,40.10
2018-04-09T02:36:08.960Z,42.28
2018-04-09T02:37:11.475Z,44.30
2018-04-09T02:38:13.986Z,40.33
2018-04-09T02:39:17.289Z,41.30
2018-04-09T02:40:19.785Z,37.95
2018-04-09T02:41:22.242Z,41.55
2018-04-09T02:42:24.736Z,46.33
2018-04-09T02:43:27.224Z,44.60
2018-04-09T02:44:30.458Z,41.85
2018-04-09T02:45:33.728Z,44.78
2018-04-09T02:46:36.962Z,44.20
2018-04-09T02:47:40.727Z,40.75
2018-04-09T02:48:43.231Z,52.03
2018-04-09T02:49:46.687Z,46.13
2018-04-09T02:50:49.920Z,45.10
2018-04-09T02:51:53.147Z,60.70
2018-04-09T02:52:55.599Z,41.85
2018-04-09T02:53:58.100Z,41.65
2018-04-09T02:55:00.541Z,40.90
2018-04-09T02:56:03.774Z,41.47
2018-04-09T02:57:07.027Z,41.25
2018-04-09T02:58:10.256Z,42.35
2018-04-09T02:59:12.728Z,41.53
2018-04-09T03:00:15.176Z,39.72
2018-04-09T03:01:17.650Z,43.95
2018-04-09T03:02:20.915Z,45.50
2018-04-09T03:03:23.374Z,42.25
2018-04-09T03:04:25.879Z,39.55
2018-04-09T03:05:28.350Z,39.80
2018-04-09T03:06:31.581Z,41.42
2018-04-09T03:07:34.090Z,39.08
2018-04-09T03:08:37.330Z,43.00
2018-04-09T03:09:39.806Z,42.60
2018-04-09T03:10:42.258Z,46.17
2018-04-09T03:11:45.343Z,42.03
2018-04-09T03:12:48.613Z,39.55
2018-04-09T03:13:51.959Z,44.45
2018-04-09T03:14:54.426Z,42.47
2018-04-09T03:15:56.900Z,39.38
2018-04-09T03:17:00.143Z,38.47
2018-04-09T03:18:02.615Z,43.10
2018-04-09T03:19:05.111Z,39.47
2018-04-09T03:20:08.338Z,39.65
2018-04-09T03:21:10.827Z,41.83
2018-04-09T03:22:13.299Z,41.67
2018-04-09T03:23:15.825Z,43.72
2018-04-09T03:24:18.289Z,39.95
2018-04-09T03:25:20.762Z,40.38
2018-04-09T03:26:23.248Z,45.05
2018-04-09T03:27:25.744Z,41.75
2018-04-09T03:28:28.196Z,41.00
2018-04-09T03:29:30.666Z,44.53
2018-04-09T03:30:33.864Z,42.65
2018-04-09T03:31:36.403Z,45.45
2018-04-09T03:32:40.232Z,42.45
2018-04-09T03:33:43.489Z,42.83
2018-04-09T03:34:45.957Z,44.03
2018-04-09T03:35:48.400Z,43.78
2018-04-09T03:36:50.865Z,42.62
2018-04-09T03:37:53.347Z,45.25
2018-04-09T03:38:55.846Z,43.00
2018-04-09T03:39:59.067Z,43.70
2018-04-09T03:41:02.979Z,39.97
2018-04-09T03:42:05.450Z,41.28
2018-04-09T03:43:08.701Z,44.80
2018-04-09T03:44:11.942Z,44.42
2018-04-09T03:45:15.165Z,40.45
2018-04-09T03:46:17.663Z,51.47
2018-04-09T03:47:20.118Z,42.40
2018-04-09T03:48:24.122Z,42.45
2018-04-09T03:49:26.622Z,39.42
2018-04-09T03:50:29.119Z,42.90
2018-04-09T03:51:31.566Z,43.33
2018-04-09T03:52:34.855Z,44.40
2018-04-09T03:53:38.038Z,45.65
2018-04-09T03:54:40.559Z,43.28
2018-04-09T03:55:43.023Z,43.38
2018-04-09T03:56:45.487Z,47.58
2018-04-09T03:57:47.967Z,40.95
2018-04-09T03:58:50.456Z,40.05
2018-04-09T03:59:52.925Z,42.10
2018-04-09T04:00:55.408Z,39.05
2018-04-09T04:01:57.887Z,40.53
2018-04-09T04:03:00.358Z,40.75
2018-04-09T04:04:02.817Z,43.05
2018-04-09T04:05:05.312Z,44.70
2018-04-09T04:06:07.875Z,44.70
2018-04-09T04:07:10.346Z,44.22
2018-04-09T04:08:13.645Z,41.28
2018-04-09T04:09:16.121Z,40.38
2018-04-09T04:10:18.602Z,43.00
2018-04-09T04:11:21.128Z,39.90
2018-04-09T04:12:23.590Z,43.60
2018-04-09T04:13:26.162Z,44.53
2018-04-09T04:14:28.618Z,41.10
2018-04-09T04:15:43.054Z,44.83
2018-04-09T04:16:57.473Z,50.22
2018-04-09T04:18:12.741Z,42.00
2018-04-09T04:19:27.151Z,47.80
2018-04-09T04:20:41.558Z,45.80
2018-04-09T04:21:45.511Z,49.72
2018-04-09T04:22:47.992Z,47.70
2018-04-09T04:23:51.202Z,49.80
2018-04-09T04:24:54.439Z,47.55
2018-04-09T04:25:57.669Z,51.67
2018-04-09T04:27:00.225Z,42.90
2018-04-09T04:28:03.451Z,51.13
2018-04-09T04:29:06.730Z,45.63
2018-04-09T04:30:09.247Z,45.45
2018-04-09T04:31:11.752Z,47.75
2018-04-09T04:32:14.200Z,46.65
2018-04-09T04:33:16.665Z,48.60
2018-04-09T04:34:19.164Z,51.92
2018-04-09T04:35:21.678Z,50.80
2018-04-09T04:36:24.202Z,48.03
2018-04-09T04:37:26.662Z,44.58
2018-04-09T04:38:29.153Z,56.28
2018-04-09T04:39:31.652Z,54.60
2018-04-09T04:40:35.026Z,45.92
2018-04-09T04:41:37.490Z,56.47
2018-04-09T04:42:39.998Z,46.88
2018-04-09T04:43:42.460Z,108.57
2018-04-09T04:44:45.225Z,47.88
2018-04-09T04:45:48.076Z,53.08
2018-04-09T04:46:50.543Z,53.25
2018-04-09T04:47:53.803Z,51.65
2018-04-09T04:48:57.101Z,51.80
2018-04-09T04:49:59.586Z,59.83
2018-04-09T04:51:02.097Z,94.22
2018-04-09T04:52:05.349Z,73.43
2018-04-09T04:53:08.572Z,52.95
2018-04-09T04:54:11.802Z,52.88
2018-04-09T04:55:14.365Z,51.97
2018-04-09T04:56:16.830Z,50.50
2018-04-09T04:57:20.263Z,62.30
2018-04-09T04:58:22.739Z,51.00
2018-04-09T04:59:25.237Z,59.47
2018-04-09T05:00:27.760Z,53.72
2018-04-09T05:01:30.250Z,52.55
2018-04-09T05:02:32.731Z,61.15
2018-04-09T05:03:35.228Z,57.38
2018-04-09T05:04:37.748Z,50.83
2018-04-09T05:05:40.254Z,68.28
2018-04-09T05:06:42.731Z,59.90
2018-04-09T05:07:45.222Z,54.55
2018-04-09T05:08:47.700Z,59.92
2018-04-09T05:09:51.117Z,59.45
2018-04-09T05:10:54.006Z,105.63
2018-04-09T05:11:56.479Z,134.95
2018-04-09T05:12:59.496Z,59.05
2018-04-09T05:14:01.962Z,53.42
2018-04-09T05:15:04.458Z,51.20
2018-04-09T05:16:06.914Z,50.70
2018-04-09T05:17:09.406Z,53.33
2018-04-09T05:18:11.896Z,56.90
2018-04-09T05:19:14.380Z,53.40
2018-04-09T05:20:16.887Z,100.30
2018-04-09T05:21:19.383Z,47.62
2018-04-09T05:22:21.858Z,47.33
2018-04-09T05:23:25.099Z,52.95
2018-04-09T05:24:27.681Z,45.33
2018-04-09T05:25:30.150Z,57.00
2018-04-09T05:26:33.390Z,40.22
2018-04-09T05:27:36.658Z,43.75
2018-04-09T05:28:39.876Z,58.35
2018-04-09T05:29:43.143Z,45.20
2018-04-09T05:30:45.683Z,41.50
2018-04-09T05:31:48.154Z,46.75
2018-04-09T05:32:50.630Z,40.05
2018-04-09T05:33:53.132Z,37.47
2018-04-09T05:34:56.399Z,36.45
2018-04-09T05:35:58.884Z,42.90
2018-04-09T05:37:01.413Z,42.92
2018-04-09T05:38:04.680Z,36.88
2018-04-09T05:39:07.158Z,40.15
2018-04-09T05:40:09.635Z,68.18
2018-04-09T05:41:12.108Z,78.62
2018-04-09T05:42:14.591Z,45.10
2018-04-09T05:43:17.086Z,57.95
2018-04-09T05:44:20.324Z,52.88
2018-04-09T05:45:23.637Z,41.72
2018-04-09T05:46:26.095Z,39.75
2018-04-09T05:47:29.460Z,56.13
2018-04-09T05:48:31.972Z,57.80
2018-04-09T05:49:35.202Z,46.58
2018-04-09T05:50:37.673Z,39.08
2018-04-09T05:51:40.661Z,85.82
2018-04-09T05:52:43.149Z,36.65
2018-04-09T05:53:45.608Z,45.00
2018-04-09T05:54:48.137Z,41.00
2018-04-09T05:55:50.696Z,50.15
2018-04-09T05:56:53.145Z,39.17
2018-04-09T05:57:55.631Z,40.53
2018-04-09T05:58:58.932Z,40.97
2018-04-09T06:00:01.402Z,40.00
2018-04-09T06:01:04.683Z,47.30
2018-04-09T06:02:07.146Z,41.35
2018-04-09T06:03:09.714Z,47.72
2018-04-09T06:04:12.183Z,38.05
2018-04-09T06:05:14.676Z,55.20
2018-04-09T06:06:17.155Z,44.83
2018-04-09T06:07:20.387Z,52.30
2018-04-09T06:08:22.879Z,40.58
2018-04-09T06:09:25.398Z,41.65
2018-04-09T06:10:27.843Z,50.63
2018-04-09T06:11:30.430Z,40.75
2018-04-09T06:12:33.471Z,46.37
2018-04-09T06:13:35.945Z,38.17
2018-04-09T06:14:38.429Z,34.78
2018-04-09T06:15:40.893Z,37.60
2018-04-09T06:16:43.393Z,37.88
2018-04-09T06:17:45.882Z,39.85
2018-04-09T06:18:48.446Z,43.08
2018-04-09T06:19:50.924Z,45.90
2018-04-09T06:20:54.161Z,44.33
2018-04-09T06:21:57.413Z,66.97
2018-04-09T06:23:00.647Z,54.03
2018-04-09T06:24:03.888Z,53.40
2018-04-09T06:25:07.142Z,46.10
2018-04-09T06:26:09.631Z,57.55
2018-04-09T06:27:12.117Z,38.65
2018-04-09T06:28:14.569Z,44.42
2018-04-09T06:29:17.120Z,36.95
2018-04-09T06:30:20.367Z,44.75
2018-04-09T06:31:22.831Z,42.38
2018-04-09T06:32:25.326Z,37.85
2018-04-09T06:33:28.562Z,38.88
2018-04-09T06:34:31.933Z,39.58
2018-04-09T06:35:35.191Z,36.58
2018-04-09T06:36:37.673Z,37.38
2018-04-09T06:37:40.273Z,37.15
2018-04-09T06:38:42.743Z,37.80
2018-04-09T06:39:46.012Z,46.00
2018-04-09T06:40:48.491Z,40.63
2018-04-09T06:41:50.999Z,35.30
2018-04-09T06:42:53.518Z,38.58
2018-04-09T06:43:55.995Z,39.55
2018-04-09T06:44:58.534Z,39.90
2018-04-09T06:46:01.015Z,38.97
2018-04-09T06:47:03.474Z,54.65
2018-04-09T06:48:05.953Z,46.00
2018-04-09T06:49:08.426Z,37.88
2018-04-09T06:50:10.936Z,35.25
2018-04-09T06:51:14.165Z,36.38
2018-04-09T06:52:17.541Z,35.60
2018-04-09T06:53:20.023Z,41.92
2018-04-09T06:54:22.477Z,31.37
2018-04-09T06:55:24.967Z,38.22
2018-04-09T06:56:27.466Z,37.10
2018-04-09T06:57:29.990Z,41.50
2018-04-09T06:58:32.462Z,30.83
2018-04-09T06:59:35.827Z,59.08
2018-04-09T07:00:39.058Z,52.40
2018-04-09T07:01:42.295Z,39.63
2018-04-09T07:02:45.542Z,34.33
2018-04-09T07:03:48.858Z,39.03
2018-04-09T07:04:52.259Z,36.05
2018-04-09T07:05:54.739Z,35.65
2018-04-09T07:06:57.220Z,46.25
2018-04-09T07:07:59.689Z,43.85
2018-04-09T07:09:02.219Z,46.22
2018-04-09T07:10:04.667Z,45.12
2018-04-09T07:11:07.208Z,39.45
2018-04-09T07:12:10.463Z,42.88
2018-04-09T07:13:12.973Z,38.42
2018-04-09T07:14:15.463Z,36.42
2018-04-09T07:15:18.718Z,33.97
2018-04-09T07:16:21.954Z,45.28
2018-04-09T07:17:25.196Z,38.53
2018-04-09T07:18:28.426Z,36.90
2018-04-09T07:19:30.917Z,41.33
2018-04-09T07:20:33.410Z,36.47
2018-04-09T07:21:36.651Z,38.08
2018-04-09T07:22:39.122Z,33.05
2018-04-09T07:23:41.623Z,39.38
2018-04-09T07:24:44.072Z,35.05
2018-04-09T07:25:46.548Z,41.53
2018-04-09T07:26:49.039Z,36.22
2018-04-09T07:27:51.515Z,33.47
2018-04-09T07:28:54.008Z,36.17
2018-04-09T07:29:57.238Z,34.22
2018-04-09T07:31:00.473Z,41.95
2018-04-09T07:32:03.039Z,38.08
2018-04-09T07:33:05.545Z,31.10
2018-04-09T07:34:08.783Z,41.65
2018-04-09T07:35:12.050Z,32.33
2018-04-09T07:36:14.521Z,37.90
2018-04-09T07:37:16.996Z,38.05
2018-04-09T07:38:19.502Z,33.25
2018-04-09T07:39:23.386Z,37.65
2018-04-09T07:40:25.867Z,39.95
2018-04-09T07:41:28.341Z,30.10
2018-04-09T07:42:30.813Z,34.20
2018-04-09T07:43:33.366Z,37.63
2018-04-09T07:44:36.590Z,35.78
2018-04-09T07:45:39.883Z,30.05
2018-04-09T07:46:42.403Z,35.22
2018-04-09T07:47:44.857Z,26.00
2018-04-09T07:48:47.390Z,30.83
2018-04-09T07:49:49.856Z,29.17
2018-04-09T07:50:52.394Z,29.30
2018-04-09T07:51:54.966Z,30.83
2018-04-09T07:52:57.928Z,28.90
2018-04-09T07:54:01.238Z,29.67
2018-04-09T07:55:03.739Z,25.92
2018-04-09T07:56:06.225Z,28.08
2018-04-09T07:57:09.517Z,28.42
2018-04-09T07:58:12.005Z,33.83
2018-04-09T07:59:15.279Z,29.80
2018-04-09T08:00:17.795Z,25.30
2018-04-09T08:01:20.270Z,25.80
2018-04-09T08:02:22.745Z,27.42
2018-04-09T08:03:25.264Z,31.48
2018-04-09T08:04:27.773Z,31.87
2018-04-09T08:05:31.057Z,31.30
2018-04-09T08:06:33.518Z,27.80
2018-04-09T08:07:36.492Z,27.33
2018-04-09T08:08:38.984Z,37.40
2018-04-09T08:09:41.538Z,25.33
2018-04-09T08:10:44.035Z,28.25
2018-04-09T08:11:47.309Z,34.80
2018-04-09T08:12:49.819Z,26.05
2018-04-09T08:13:53.079Z,24.17
2018-04-09T08:14:56.541Z,23.95
2018-04-09T08:15:59.028Z,26.42
2018-04-09T08:17:02.274Z,23.77
2018-04-09T08:18:05.566Z,26.60
2018-04-09T08:19:08.068Z,26.45
2018-04-09T08:20:10.537Z,25.55
2018-04-09T08:21:13.034Z,24.90
2018-04-09T08:22:15.692Z,26.12
2018-04-09T08:23:18.190Z,26.73
2018-04-09T08:24:20.651Z,26.83
2018-04-09T08:25:23.139Z,26.83
2018-04-09T08:26:25.618Z,35.72
2018-04-09T08:27:28.896Z,27.73
2018-04-09T08:28:31.412Z,27.52
2018-04-09T08:29:33.883Z,26.87
2018-04-09T08:30:36.457Z,24.90
2018-04-09T08:31:38.932Z,24.90
2018-04-09T08:32:41.429Z,28.45
2018-04-09T08:33:43.924Z,27.60
2018-04-09T08:34:47.173Z,25.50
2018-04-09T08:35:49.679Z,28.65
2018-04-09T08:36:52.961Z,24.80
2018-04-09T08:37:55.430Z,20.92
2018-04-09T08:38:57.895Z,24.20
2018-04-09T08:40:00.371Z,20.30
2018-04-09T08:41:02.869Z,20.90
2018-04-09T08:42:05.354Z,18.80
2018-04-09T08:43:08.602Z,24.60
2018-04-09T08:44:11.829Z,22.85
2018-04-09T08:45:15.142Z,22.48
2018-04-09T08:46:17.623Z,22.05
2018-04-09T08:47:20.125Z,20.52
2018-04-09T08:48:23.370Z,25.25
2018-04-09T08:49:26.625Z,21.40
2018-04-09T08:50:29.862Z,23.23
2018-04-09T08:51:33.219Z,25.45
2018-04-09T08:52:35.748Z,25.90
2018-04-09T08:53:38.227Z,23.55
2018-04-09T08:54:40.794Z,26.80
2018-04-09T08:55:43.290Z,21.75
2018-04-09T08:56:45.778Z,27.08
2018-04-09T08:57:48.278Z,24.35
2018-04-09T08:58:50.789Z,27.83
2018-04-09T08:59:54.060Z,22.65
2018-04-09T09:00:56.532Z,19.58
2018-04-09T09:01:59.776Z,22.58
2018-04-09T09:03:02.238Z,19.92
2018-04-09T09:04:04.715Z,22.35
2018-04-09T09:05:07.990Z,21.50
2018-04-09T09:06:11.297Z,17.45
2018-04-09T09:07:13.805Z,16.27
2018-04-09T09:08:16.314Z,18.05
2018-04-09T09:09:18.803Z,15.35
2018-04-09T09:10:22.049Z,17.62
2018-04-09T09:11:25.301Z,16.33
2018-04-09T09:12:28.555Z,25.73
2018-04-09T09:13:31.054Z,19.77
2018-04-09T09:14:33.532Z,26.50
2018-04-09T09:15:36.032Z,25.67
2018-04-09T09:16:38.575Z,26.17
2018-04-09T09:17:41.165Z,28.77
2018-04-09T09:18:44.436Z,26.58
2018-04-09T09:19:46.900Z,24.90
2018-04-09T09:20:49.546Z,22.95
2018-04-09T09:21:52.029Z,26.90
2018-04-09T09:22:54.498Z,27.25
2018-04-09T09:23:57.754Z,27.30
2018-04-09T09:25:00.997Z,26.23
2018-04-09T09:26:04.246Z,25.95
2018-04-09T09:27:06.730Z,27.37
2018-04-09T09:28:09.229Z,22.25
2018-04-09T09:29:11.707Z,24.87
2018-04-09T09:30:14.957Z,26.15
2018-04-09T09:31:18.201Z,23.90
2018-04-09T09:32:21.437Z,28.38
2018-04-09T09:33:24.695Z,28.25
2018-04-09T09:34:27.169Z,22.90
2018-04-09T09:35:29.637Z,27.42
2018-04-09T09:36:32.889Z,20.08
2018-04-09T09:37:35.417Z,19.67
2018-04-09T09:38:37.850Z,20.55
2018-04-09T09:39:40.364Z,28.70
2018-04-09T09:40:42.855Z,18.30
2018-04-09T09:41:45.360Z,20.95
2018-04-09T09:42:47.815Z,20.37
2018-04-09T09:43:51.047Z,20.60
2018-04-09T09:44:53.523Z,21.87
2018-04-09T09:45:56.161Z,19.80
2018-04-09T09:46:58.703Z,25.70
2018-04-09T09:48:01.180Z,22.50
2018-04-09T09:49:03.679Z,25.95
2018-04-09T09:50:06.167Z,24.33
2018-04-09T09:51:08.643Z,22.10
2018-04-09T09:52:11.906Z,27.50
2018-04-09T09:53:14.402Z,22.55
2018-04-09T09:54:17.678Z,27.90
2018-04-09T09:55:20.299Z,21.15
2018-04-09T09:56:22.858Z,20.88
2018-04-09T09:57:25.324Z,17.85
2018-04-09T09:58:28.560Z,17.60
2018-04-09T09:59:31.114Z,22.77
2018-04-09T10:00:39.275Z,19.27
2018-04-09T10:01:42.573Z,20.10
2018-04-09T10:02:51.439Z,18.00
2018-04-09T10:03:53.908Z,21.65
2018-04-09T10:04:56.820Z,25.48
2018-04-09T10:05:59.366Z,21.60
2018-04-09T10:07:01.899Z,20.65
2018-04-09T10:08:04.417Z,20.58
2018-04-09T10:09:06.868Z,17.92
2018-04-09T10:10:09.371Z,20.55
2018-04-09T10:11:11.876Z,20.33
2018-04-09T10:12:15.133Z,18.37
2018-04-09T10:13:18.372Z,18.85
2018-04-09T10:14:21.604Z,20.20
2018-04-09T10:15:24.851Z,18.83
2018-04-09T10:16:28.084Z,17.27
2018-04-09T10:17:30.585Z,19.12
2018-04-09T10:18:33.163Z,21.25
2018-04-09T10:19:35.643Z,18.15
2018-04-09T10:20:38.115Z,25.05
2018-04-09T10:21:40.626Z,19.75
2018-04-09T10:22:43.850Z,17.35
2018-04-09T10:23:46.412Z,20.40
2018-04-09T10:24:48.897Z,18.48
2018-04-09T10:25:51.413Z,16.67
2018-04-09T10:26:53.849Z,18.25
2018-04-09T10:27:56.355Z,17.30
2018-04-09T10:28:58.846Z,17.83
2018-04-09T10:30:01.336Z,17.35
2018-04-09T10:31:04.568Z,17.23
2018-04-09T10:32:07.173Z,16.58
2018-04-09T10:33:09.788Z,15.50
2018-04-09T10:34:12.213Z,22.33
2018-04-09T10:35:14.725Z,15.45
2018-04-09T10:36:17.222Z,19.67
2018-04-09T10:37:20.450Z,17.00
2018-04-09T10:38:23.702Z,17.67
2018-04-09T10:39:26.948Z,19.02
2018-04-09T10:40:30.211Z,16.65
2018-04-09T10:41:32.681Z,18.27
2018-04-09T10:42:35.145Z,18.00
2018-04-09T10:43:37.677Z,17.30
2018-04-09T10:44:40.244Z,17.77
2018-04-09T10:45:42.819Z,16.90
2018-04-09T10:46:46.060Z,22.08
2018-04-09T10:47:49.297Z,17.40
2018-04-09T10:48:52.530Z,17.75
2018-04-09T10:49:55.788Z,16.05
2018-04-09T10:50:59.030Z,19.05
2018-04-09T10:52:02.332Z,16.87
2018-04-09T10:53:04.951Z,16.15
2018-04-09T10:54:08.196Z,18.83
2018-04-09T10:55:10.681Z,15.95
2018-04-09T10:56:13.191Z,16.45
2018-04-09T10:57:16.438Z,17.37
2018-04-09T10:58:18.991Z,16.35
2018-04-09T10:59:21.481Z,17.52
2018-04-09T11:00:24.719Z,14.87
2018-04-09T11:01:27.951Z,14.25
2018-04-09T11:02:30.698Z,14.45
2018-04-09T11:03:33.965Z,15.77
2018-04-09T11:04:36.464Z,14.38
2018-04-09T11:05:39.702Z,14.23
2018-04-09T11:06:42.947Z,13.93
2018-04-09T11:07:46.260Z,23.33
2018-04-09T11:08:48.760Z,14.57
2018-04-09T11:09:51.248Z,14.65
2018-04-09T11:10:54.480Z,14.87
2018-04-09T11:11:57.737Z,13.93
2018-04-09T11:13:00.228Z,19.85
2018-04-09T11:14:02.696Z,16.37
2018-04-09T11:15:05.190Z,16.45
2018-04-09T11:16:08.462Z,17.25
2018-04-09T11:17:10.933Z,14.65
2018-04-09T11:18:13.389Z,14.65
2018-04-09T11:19:16.622Z,20.95
2018-04-09T11:20:19.131Z,15.90
2018-04-09T11:21:21.624Z,17.87
2018-04-09T11:22:24.088Z,14.35
2018-04-09T11:23:26.560Z,17.08
2018-04-09T11:24:29.007Z,14.40
2018-04-09T11:25:31.528Z,16.87
2018-04-09T11:26:34.003Z,16.87
2018-04-09T11:27:37.245Z,15.25
2018-04-09T11:28:40.487Z,15.30
2018-04-09T11:29:43.732Z,17.40
2018-04-09T11:30:46.993Z,15.52
2018-04-09T11:31:50.217Z,15.48
2018-04-09T11:32:53.451Z,14.23
2018-04-09T11:33:56.712Z,16.83
2018-04-09T11:34:59.986Z,13.45
2018-04-09T11:36:02.457Z,13.93
2018-04-09T11:37:04.989Z,15.95
2018-04-09T11:38:07.549Z,13.35
2018-04-09T11:39:10.037Z,14.18
2018-04-09T11:40:12.510Z,15.38
2018-04-09T11:41:14.967Z,13.82
2018-04-09T11:42:17.433Z,16.90
2018-04-09T11:43:20.709Z,12.93
2018-04-09T11:44:23.178Z,16.37
2018-04-09T11:45:26.436Z,15.75
2018-04-09T11:46:29.691Z,15.10
2018-04-09T11:47:32.987Z,15.32
2018-04-09T11:48:35.495Z,14.68
2018-04-09T11:49:37.964Z,17.45
2018-04-09T11:50:40.419Z,16.98
2018-04-09T11:51:42.890Z,15.43
2018-04-09T11:52:45.350Z,16.30
2018-04-09T11:53:48.710Z,15.60
2018-04-09T11:54:51.255Z,15.45
2018-04-09T11:55:53.761Z,15.45
2018-04-09T11:56:56.234Z,13.80
2018-04-09T11:59:00.390Z,17.00
2018-04-09T12:00:03.666Z,15.85
2018-04-09T12:01:06.152Z,15.73
2018-04-09T12:02:08.612Z,15.13
2018-04-09T12:03:11.081Z,16.75
2018-04-09T12:04:13.535Z,14.60
2018-04-09T12:05:16.813Z,15.15
2018-04-09T12:06:19.293Z,16.95
2018-04-09T12:07:21.756Z,15.20
2018-04-09T12:08:24.235Z,13.85
2018-04-09T12:09:26.725Z,15.68
2018-04-09T12:10:29.215Z,15.55
2018-04-09T12:11:32.447Z,16.02
2018-04-09T12:12:35.693Z,14.60
2018-04-09T12:13:38.171Z,18.12
2018-04-09T12:14:40.650Z,15.90
2018-04-09T12:15:43.897Z,14.35
2018-04-09T12:16:47.121Z,15.35
2018-04-09T12:17:50.363Z,14.85
2018-04-09T12:18:53.616Z,13.62
2018-04-09T12:19:56.973Z,17.65
2018-04-09T12:20:59.848Z,14.63
2018-04-09T12:22:02.333Z,14.93
2018-04-09T12:23:04.855Z,15.95
2018-04-09T12:24:07.319Z,13.52
2018-04-09T12:25:09.811Z,15.50
2018-04-09T12:26:12.360Z,15.95
2018-04-09T12:27:14.844Z,14.90
2018-04-09T12:28:18.125Z,14.05
2018-04-09T12:29:20.611Z,16.48
2018-04-09T12:30:23.857Z,16.15
2018-04-09T12:31:27.571Z,15.13
2018-04-09T12:32:30.040Z,14.75
2018-04-09T12:33:33.290Z,13.95
2018-04-09T12:34:35.776Z,14.07
2018-04-09T12:35:38.240Z,14.05
2018-04-09T12:36:40.731Z,13.68
2018-04-09T12:37:43.214Z,13.35
2018-04-09T12:38:46.441Z,15.48
2018-04-09T12:39:48.933Z,17.50
2018-04-09T12:40:51.425Z,16.73
2018-04-09T12:41:53.884Z,13.38
2018-04-09T12:42:57.149Z,16.00
2018-04-09T12:43:59.683Z,13.25
2018-04-09T12:45:02.149Z,13.85
2018-04-09T12:46:04.659Z,15.13
2018-04-09T12:47:07.124Z,11.48
2018-04-09T12:48:10.389Z,14.90
2018-04-09T12:49:13.740Z,14.60
2018-04-09T12:50:16.205Z,12.77
2018-04-09T12:51:18.695Z,14.68
2018-04-09T12:52:21.261Z,13.30
2018-04-09T12:53:23.844Z,14.90
2018-04-09T12:54:27.077Z,12.50
2018-04-09T12:55:30.386Z,15.63
2018-04-09T12:56:32.849Z,14.45
2018-04-09T12:57:36.100Z,12.70
2018-04-09T12:58:38.574Z,12.25
2018-04-09T12:59:41.906Z,14.27
2018-04-09T13:00:44.368Z,15.45
2018-04-09T13:01:47.604Z,12.85
2018-04-09T13:02:50.836Z,12.90
2018-04-09T13:03:54.096Z,12.15
2018-04-09T13:04:57.332Z,15.02
2018-04-09T13:06:00.572Z,16.30
2018-04-09T13:07:03.840Z,12.15
2018-04-09T13:08:06.372Z,15.50
2018-04-09T13:09:08.893Z,15.00
2018-04-09T13:10:11.439Z,15.48
2018-04-09T13:11:14.640Z,11.02
2018-04-09T13:12:17.903Z,16.15
2018-04-09T13:13:20.406Z,15.35
2018-04-09T13:14:23.690Z,14.52
2018-04-09T13:15:26.180Z,13.55
2018-04-09T13:16:29.421Z,13.68
2018-04-09T13:17:32.708Z,11.55
2018-04-09T13:18:35.268Z,12.05
2018-04-09T13:19:38.527Z,13.10
2018-04-09T13:20:41.765Z,14.45
2018-04-09T13:21:45.043Z,23.08
2018-04-09T13:22:47.519Z,19.00
2018-04-09T13:23:49.970Z,18.75
2018-04-09T13:24:53.240Z,12.77
2018-04-09T13:25:55.731Z,17.20
2018-04-09T13:26:58.207Z,17.65
2018-04-09T13:28:00.680Z,34.15
2018-04-09T13:29:03.957Z,15.05
2018-04-09T13:30:06.464Z,15.70
2018-04-09T13:31:08.937Z,13.18
2018-04-09T13:32:11.402Z,13.98